Sevierville, TN

1:55 PM EDT on July 27, 2016 (GMT -0400)
Murphy Rd | | Change Station

Elev 958 ft 35.85 °N, 83.57 °W | Updated 4 minutes ago

Scattered Clouds
Scattered Clouds
91.6 °F
Feels Like 100 °F
N
4.2
Wind Variable Wind from South

Today
High -- | Low -- °F
--% Chance of Precip.
Yesterday
High -- | Low -- °F
Precip. -- in
Pressure 30.00 in
Visibility 10.0 miles
Clouds Few 3500 ft
Few 15000 ft
Scattered Clouds 25000 ft
Heat Index 100 °F
Dew Point 73 °F
Humidity 54%
Rainfall 0.00 in
Snow Depth Not available.
6:38 AM 8:42 PM
Last Quarter, 41% visible
METAR KTYS 271653Z VRB04KT 10SM FEW035 FEW150 SCT250 32/22 A3004 RMK AO2 SLP158 T03170222
Pressure 30.00 in
Visibility 10.0 miles
Clouds Few 3500 ft
Few 15000 ft
Scattered Clouds 25000 ft
Heat Index 100 °F
Dew Point 73 °F
Humidity 54%
Rainfall 0.00 in
Snow Depth Not available.
6:38 AM 8:42 PM
Last Quarter, 41% visible
METAR KTYS 271653Z VRB04KT 10SM FEW035 FEW150 SCT250 32/22 A3004 RMK AO2 SLP158 T03170222

10-Day Weather Forecast

Almanac

Astronomy

Jul. 27, 2016 Rise Set
Actual Time
Civil Twilight
Nautical Twilight
Astronomical Twilight
Moon
Length of Visible Light
Length of Day
Tomorrow will be .
, % of the Moon is Illuminated

Today's Extremes

State Highs State Lows

Community

WunderPhotos

Upload Photos

1,927,889 photos uploaded!

WunderBlog® & News

Nearby

Air Quality

  Air Quality AQ Index Pollutant
Not available.

Snow Depth

Station Depth Elevation

Earthquake Activity

City Distance Mag. Time & Date
Minimum magnitude displayed is 2.5.

Coastal Water Temperatures

Place Temperature

Stations

Nearby Weather Stations

Station Location Temp. Windchill Dew Point Humidity Wind Precip. Elev Updated Type
                   

Watches & Warnings

There are currently no watches in effect.